createdAt,value
2023-03-04T00:00:07.242Z,74.60
2023-03-04T00:02:34.064Z,74.60
2023-03-04T00:05:00.996Z,74.60
2023-03-04T00:07:27.817Z,74.70
2023-03-04T00:09:54.635Z,74.70
2023-03-04T00:12:21.460Z,74.80
2023-03-04T00:14:48.303Z,74.80
2023-03-04T00:17:15.156Z,74.80
2023-03-04T00:19:42.107Z,75.00
2023-03-04T00:22:09.112Z,75.00
2023-03-04T00:24:36.361Z,75.00
2023-03-04T00:27:03.210Z,75.00
2023-03-04T00:29:30.097Z,74.90
2023-03-04T00:31:57.133Z,74.80
2023-03-04T00:34:24.209Z,74.90
2023-03-04T00:36:51.037Z,74.90
2023-03-04T00:39:18.065Z,75.00
2023-03-04T00:41:44.943Z,75.00
2023-03-04T00:44:12.149Z,75.10
2023-03-04T00:46:39.008Z,75.10
2023-03-04T00:49:05.862Z,75.20
2023-03-04T00:51:32.737Z,75.20
2023-03-04T00:54:00.917Z,75.20
2023-03-04T00:56:28.826Z,75.20
2023-03-04T00:58:56.200Z,75.20
2023-03-04T01:01:23.349Z,75.10
2023-03-04T01:03:50.284Z,75.20
2023-03-04T01:06:17.248Z,75.20
2023-03-04T01:08:44.122Z,75.20
2023-03-04T01:11:11.106Z,75.20
2023-03-04T01:13:38.640Z,75.20
2023-03-04T01:16:06.531Z,75.20
2023-03-04T01:18:33.883Z,75.20
2023-03-04T01:21:00.881Z,75.10
2023-03-04T01:23:27.752Z,75.20
2023-03-04T01:25:54.605Z,75.10
2023-03-04T01:28:21.493Z,75.20
2023-03-04T01:30:48.440Z,75.00
2023-03-04T01:33:15.708Z,75.00
2023-03-04T01:35:42.611Z,75.10
2023-03-04T01:38:09.533Z,75.10
2023-03-04T01:40:38.469Z,75.20
2023-03-04T01:43:06.113Z,75.40
2023-03-04T01:45:37.916Z,75.60
2023-03-04T01:48:06.650Z,75.60
2023-03-04T01:50:35.883Z,75.90
2023-03-04T01:53:03.982Z,75.70
2023-03-04T01:55:31.792Z,75.80
2023-03-04T01:57:58.669Z,75.60
2023-03-04T02:00:33.849Z,75.30
2023-03-04T02:03:08.596Z,75.20
2023-03-04T02:05:39.707Z,75.00
2023-03-04T02:08:08.106Z,75.00
2023-03-04T02:10:35.868Z,75.10
2023-03-04T02:13:03.711Z,75.10
2023-03-04T02:15:31.166Z,75.20
2023-03-04T02:17:58.321Z,75.30
2023-03-04T02:20:48.291Z,75.30
2023-03-04T02:23:37.978Z,74.80
2023-03-04T02:26:21.883Z,74.70
2023-03-04T02:28:52.417Z,74.60
2023-03-04T02:31:28.405Z,75.40
2023-03-04T02:34:03.212Z,75.40
2023-03-04T02:36:31.923Z,75.60
2023-03-04T02:39:10.453Z,75.60
2023-03-04T02:41:38.012Z,75.40
2023-03-04T02:44:19.455Z,75.70
2023-03-04T02:46:47.838Z,75.30
2023-03-04T02:49:15.134Z,75.70
2023-03-04T02:51:41.963Z,75.80
2023-03-04T02:54:22.352Z,75.80
2023-03-04T02:56:52.678Z,75.40
2023-03-04T02:59:22.074Z,75.80
2023-03-04T03:01:50.066Z,75.70
2023-03-04T03:04:18.628Z,75.70
2023-03-04T03:06:45.909Z,75.70
2023-03-04T03:09:12.955Z,75.70
2023-03-04T03:11:39.957Z,75.70
2023-03-04T03:14:07.422Z,75.70
2023-03-04T03:16:34.884Z,75.80
2023-03-04T03:19:01.845Z,75.70
2023-03-04T03:21:28.763Z,75.70
2023-03-04T03:23:55.669Z,75.60
2023-03-04T03:26:22.648Z,76.00
2023-03-04T03:28:49.803Z,75.60
2023-03-04T03:31:16.689Z,75.60
2023-03-04T03:33:43.568Z,75.60
2023-03-04T03:36:10.508Z,75.70
2023-03-04T03:38:37.682Z,75.60
2023-03-04T03:41:04.741Z,75.60
2023-03-04T03:43:31.571Z,75.60
2023-03-04T03:45:58.458Z,75.60
2023-03-04T03:48:25.300Z,75.50
2023-03-04T03:50:52.131Z,75.50
2023-03-04T03:53:18.993Z,75.50
2023-03-04T03:55:45.810Z,75.50
2023-03-04T03:58:12.718Z,75.50
2023-03-04T04:00:39.611Z,75.60
2023-03-04T04:03:06.567Z,75.60
2023-03-04T04:05:33.456Z,75.70
2023-03-04T04:08:00.266Z,75.70
2023-03-04T04:10:27.099Z,75.70
2023-03-04T04:12:53.958Z,75.70
2023-03-04T04:15:20.930Z,75.80
2023-03-04T04:17:47.926Z,75.80
2023-03-04T04:20:14.746Z,75.80
2023-03-04T04:22:41.537Z,75.70
2023-03-04T04:25:10.617Z,75.60
2023-03-04T04:27:37.637Z,75.70
2023-03-04T04:30:06.352Z,75.60
2023-03-04T04:32:33.377Z,75.70
2023-03-04T04:35:00.229Z,75.70
2023-03-04T04:37:27.145Z,75.70
2023-03-04T04:39:55.412Z,75.70
2023-03-04T04:42:23.598Z,75.60
2023-03-04T04:44:50.717Z,75.60
2023-03-04T04:47:17.670Z,75.60
2023-03-04T04:49:45.016Z,75.50
2023-03-04T04:52:11.901Z,75.50
2023-03-04T04:54:38.739Z,75.70
2023-03-04T04:57:05.827Z,75.60
2023-03-04T04:59:32.625Z,75.50
2023-03-04T05:01:59.471Z,75.50
2023-03-04T05:04:26.485Z,75.50
2023-03-04T05:06:53.458Z,75.70
2023-03-04T05:09:20.954Z,75.60
2023-03-04T05:11:47.788Z,75.60
2023-03-04T05:14:14.734Z,75.70
2023-03-04T05:16:41.616Z,75.70
2023-03-04T05:19:08.627Z,75.60
2023-03-04T05:21:35.528Z,75.60
2023-03-04T05:24:02.399Z,75.70
2023-03-04T05:26:29.240Z,75.60
2023-03-04T05:28:56.132Z,75.60
2023-03-04T05:31:23.304Z,75.60
2023-03-04T05:33:50.149Z,75.60
2023-03-04T05:36:17.051Z,75.60
2023-03-04T05:38:43.877Z,75.60
2023-03-04T05:41:10.727Z,75.70
2023-03-04T05:43:42.662Z,75.90
2023-03-04T05:46:16.266Z,76.00
2023-03-04T05:48:44.940Z,75.90
2023-03-04T05:51:11.828Z,76.50
2023-03-04T05:53:39.922Z,76.10
2023-03-04T05:56:13.435Z,76.10
2023-03-04T05:58:40.863Z,76.10
2023-03-04T06:01:08.353Z,76.20
2023-03-04T06:03:35.710Z,76.10
2023-03-04T06:06:03.268Z,76.20
2023-03-04T06:08:30.123Z,76.20
2023-03-04T06:10:59.099Z,76.30
2023-03-04T06:13:27.820Z,76.20
2023-03-04T06:15:59.822Z,76.20
2023-03-04T06:18:28.513Z,76.10
2023-03-04T06:21:01.041Z,76.30
2023-03-04T06:23:28.501Z,76.10
2023-03-04T06:25:58.295Z,76.30
2023-03-04T06:28:25.885Z,76.30
2023-03-04T06:30:53.606Z,76.40
2023-03-04T06:33:20.938Z,76.40
2023-03-04T06:35:48.570Z,76.50
2023-03-04T06:38:15.597Z,76.60
2023-03-04T06:40:42.421Z,76.80
2023-03-04T06:43:09.268Z,76.80
2023-03-04T06:45:38.329Z,76.90
2023-03-04T06:48:05.637Z,77.00
2023-03-04T06:50:32.491Z,76.80
2023-03-04T06:52:59.355Z,76.80
2023-03-04T06:55:26.206Z,76.80
2023-03-04T06:57:53.146Z,76.70
2023-03-04T07:00:20.534Z,76.70
2023-03-04T07:02:47.496Z,76.50
2023-03-04T07:05:14.314Z,77.00
2023-03-04T07:07:42.750Z,76.80
2023-03-04T07:10:10.696Z,76.70
2023-03-04T07:12:37.555Z,76.70
2023-03-04T07:15:04.930Z,76.80
2023-03-04T07:17:31.728Z,76.80
2023-03-04T07:19:58.520Z,77.00
2023-03-04T07:22:25.362Z,77.20
2023-03-04T07:24:52.153Z,77.20
2023-03-04T07:27:19.009Z,77.20
2023-03-04T07:29:45.829Z,77.30
2023-03-04T07:32:12.802Z,77.40
2023-03-04T07:34:39.692Z,77.60
2023-03-04T07:37:06.549Z,77.80
2023-03-04T07:39:33.434Z,77.70
2023-03-04T07:42:00.279Z,77.10
2023-03-04T07:44:27.287Z,76.50
2023-03-04T07:46:54.436Z,75.70
2023-03-04T07:49:21.316Z,75.00
2023-03-04T07:51:48.224Z,74.30
2023-03-04T07:54:15.190Z,73.70
2023-03-04T07:56:42.055Z,72.70
2023-03-04T07:59:08.901Z,71.50
2023-03-04T08:01:38.251Z,70.10
2023-03-04T08:04:07.544Z,68.80
2023-03-04T08:06:35.606Z,68.10
2023-03-04T08:09:07.608Z,67.80
2023-03-04T08:11:37.500Z,66.40
2023-03-04T08:14:04.971Z,65.80
2023-03-04T08:16:32.362Z,65.80
2023-03-04T08:19:02.038Z,66.30
2023-03-04T08:21:29.207Z,66.60
2023-03-04T08:24:01.823Z,68.00
2023-03-04T08:26:33.955Z,66.80
2023-03-04T08:29:05.337Z,66.40
2023-03-04T08:31:33.010Z,65.90
2023-03-04T08:34:02.864Z,65.20
2023-03-04T08:36:29.917Z,64.30
2023-03-04T08:38:56.765Z,64.20
2023-03-04T08:41:25.564Z,64.20
2023-03-04T08:43:52.439Z,64.50
2023-03-04T08:46:19.338Z,64.50
2023-03-04T08:48:46.162Z,63.70
2023-03-04T08:51:16.078Z,63.30
2023-03-04T08:53:44.083Z,63.60
2023-03-04T08:56:12.214Z,65.10
2023-03-04T08:58:39.410Z,64.90
2023-03-04T09:01:10.763Z,63.80
2023-03-04T09:03:38.831Z,62.50
2023-03-04T09:06:06.865Z,62.60
2023-03-04T09:08:35.049Z,61.50
2023-03-04T09:11:02.406Z,61.30
2023-03-04T09:13:31.618Z,60.60
2023-03-04T09:15:59.109Z,60.50
2023-03-04T09:18:27.886Z,61.00
2023-03-04T09:20:55.329Z,61.80
2023-03-04T09:23:22.674Z,62.10
2023-03-04T09:25:49.852Z,62.40
2023-03-04T09:28:18.054Z,61.50
2023-03-04T09:30:45.286Z,60.30
2023-03-04T09:33:13.315Z,58.90
2023-03-04T09:35:40.311Z,58.10
2023-03-04T09:38:07.785Z,58.20
2023-03-04T09:40:46.516Z,58.90
2023-03-04T09:43:29.451Z,56.40
2023-03-04T09:46:05.110Z,56.80
2023-03-04T09:48:45.245Z,58.40
2023-03-04T09:51:36.394Z,55.00
2023-03-04T09:54:45.152Z,55.10
2023-03-04T09:57:52.843Z,53.40
2023-03-04T10:00:44.322Z,53.40
2023-03-04T10:03:17.177Z,52.80
2023-03-04T10:06:09.145Z,55.90
2023-03-04T10:09:20.231Z,54.30
2023-03-04T10:11:50.528Z,53.90
2023-03-04T10:14:33.490Z,59.10
2023-03-04T10:17:14.050Z,54.40
2023-03-04T10:20:01.309Z,52.80
2023-03-04T10:22:56.477Z,52.90
2023-03-04T10:25:32.822Z,54.30
2023-03-04T10:28:18.422Z,53.80
2023-03-04T10:31:36.820Z,54.20
2023-03-04T10:34:07.126Z,52.90
2023-03-04T10:37:01.312Z,52.00
2023-03-04T10:39:32.861Z,50.80
2023-03-04T10:42:20.548Z,54.00
2023-03-04T10:45:00.242Z,51.80
2023-03-04T10:47:31.492Z,50.30
2023-03-04T10:50:02.244Z,54.20
2023-03-04T10:52:39.724Z,54.10
2023-03-04T10:55:24.066Z,55.90
2023-03-04T10:58:18.206Z,51.20
2023-03-04T11:01:10.800Z,51.90
2023-03-04T11:03:38.554Z,52.80
2023-03-04T11:06:18.892Z,52.20
2023-03-04T11:08:57.133Z,50.90
2023-03-04T11:11:55.967Z,51.60
2023-03-04T11:14:29.472Z,49.20
2023-03-04T11:17:04.087Z,52.20
2023-03-04T11:19:44.586Z,50.20
2023-03-04T11:22:17.129Z,49.00
2023-03-04T11:24:45.711Z,52.20
2023-03-04T11:27:30.702Z,53.20
2023-03-04T11:30:34.675Z,54.00
2023-03-04T11:33:35.107Z,52.00
2023-03-04T11:36:54.869Z,53.50
2023-03-04T11:39:44.184Z,52.80
2023-03-04T11:42:43.157Z,53.60
2023-03-04T11:45:28.231Z,58.50
2023-03-04T11:48:12.787Z,57.10
2023-03-04T11:50:54.479Z,59.10
2023-03-04T11:53:56.989Z,56.40
2023-03-04T11:56:47.029Z,56.90
2023-03-04T11:59:38.120Z,58.80
2023-03-04T12:02:10.992Z,57.30
2023-03-04T12:05:02.096Z,57.90
2023-03-04T12:08:03.540Z,58.20
2023-03-04T12:10:58.542Z,57.30
2023-03-04T12:13:48.157Z,57.30
2023-03-04T12:16:29.316Z,59.60
2023-03-04T12:19:45.196Z,58.10
2023-03-04T12:22:25.623Z,58.10
2023-03-04T12:25:20.580Z,60.10
2023-03-04T12:27:59.143Z,61.30
2023-03-04T12:30:35.736Z,58.90
2023-03-04T12:33:51.163Z,60.40
2023-03-04T12:36:30.277Z,57.70
2023-03-04T12:39:17.218Z,59.00
2023-03-04T12:42:41.425Z,60.40
2023-03-04T12:45:35.712Z,58.20
2023-03-04T12:48:33.262Z,58.20
2023-03-04T12:51:26.556Z,60.90
2023-03-04T12:54:17.091Z,58.50
2023-03-04T12:57:00.840Z,60.40
2023-03-04T12:59:36.723Z,62.60
2023-03-04T13:02:26.794Z,62.70
2023-03-04T13:05:04.069Z,60.80
2023-03-04T13:08:03.411Z,61.60
2023-03-04T13:10:30.523Z,60.60
2023-03-04T13:13:00.485Z,63.60
2023-03-04T13:15:34.668Z,63.30
2023-03-04T13:18:27.401Z,63.50
2023-03-04T13:21:31.631Z,62.00
2023-03-04T13:24:38.348Z,58.30
2023-03-04T13:27:48.708Z,62.30
2023-03-04T13:30:34.487Z,58.20
2023-03-04T13:33:16.177Z,58.10
2023-03-04T13:35:48.956Z,58.70
2023-03-04T13:38:28.261Z,60.60
2023-03-04T13:41:24.814Z,57.60
2023-03-04T13:44:00.175Z,57.20
2023-03-04T13:46:30.866Z,61.60
2023-03-04T13:48:59.477Z,60.60
2023-03-04T13:51:46.780Z,61.80
2023-03-04T13:54:19.824Z,61.10
2023-03-04T13:57:20.728Z,59.10
2023-03-04T13:59:57.542Z,57.10
2023-03-04T14:02:27.144Z,61.80
2023-03-04T14:04:53.915Z,61.40
2023-03-04T14:07:34.007Z,61.90
2023-03-04T14:10:07.535Z,58.50
2023-03-04T14:12:38.080Z,62.10
2023-03-04T14:15:22.711Z,61.20
2023-03-04T14:18:02.095Z,61.10
2023-03-04T14:20:39.400Z,59.30
2023-03-04T14:23:29.694Z,60.50
2023-03-04T14:26:17.985Z,57.90
2023-03-04T14:28:48.502Z,58.90
2023-03-04T14:31:22.583Z,64.40
2023-03-04T14:33:57.211Z,65.50
2023-03-04T14:36:24.585Z,66.80
2023-03-04T14:38:58.951Z,68.20
2023-03-04T14:41:38.488Z,65.70
2023-03-04T14:44:30.196Z,65.20
2023-03-04T14:47:09.209Z,62.70
2023-03-04T14:49:38.500Z,60.80
2023-03-04T14:52:06.696Z,60.90
2023-03-04T14:54:42.064Z,59.80
2023-03-04T14:57:24.782Z,54.90
2023-03-04T14:59:52.654Z,53.60
2023-03-04T15:02:33.643Z,58.40
2023-03-04T15:05:17.735Z,54.70
2023-03-04T15:07:57.313Z,58.50
2023-03-04T15:10:32.580Z,57.30
2023-03-04T15:13:03.887Z,58.80
2023-03-04T15:15:41.441Z,62.00
2023-03-04T15:18:22.923Z,61.70
2023-03-04T15:20:56.371Z,59.30
2023-03-04T15:23:23.473Z,59.80
2023-03-04T15:25:57.697Z,62.00
2023-03-04T15:28:26.071Z,58.90
2023-03-04T15:30:54.403Z,61.40
2023-03-04T15:33:21.511Z,60.60
2023-03-04T15:36:01.700Z,60.30
2023-03-04T15:38:29.832Z,54.50
2023-03-04T15:40:59.454Z,59.60
2023-03-04T15:43:27.092Z,59.00
2023-03-04T15:45:54.259Z,58.50
2023-03-04T15:48:21.760Z,57.90
2023-03-04T15:50:54.658Z,57.60
2023-03-04T15:53:40.875Z,57.20
2023-03-04T15:56:22.133Z,52.90
2023-03-04T15:58:59.315Z,52.80
2023-03-04T16:01:26.309Z,54.70
2023-03-04T16:03:53.988Z,55.90
2023-03-04T16:06:23.526Z,54.20
2023-03-04T16:08:52.287Z,53.30
2023-03-04T16:11:26.950Z,52.90
2023-03-04T16:13:54.500Z,51.60
2023-03-04T16:16:21.779Z,53.20
2023-03-04T16:18:48.964Z,53.30
2023-03-04T16:21:20.222Z,53.40
2023-03-04T16:23:50.651Z,53.10
2023-03-04T16:26:30.133Z,53.50
2023-03-04T16:28:57.115Z,52.00
2023-03-04T16:31:24.172Z,54.60
2023-03-04T16:33:51.170Z,54.90
2023-03-04T16:36:27.745Z,55.20
2023-03-04T16:39:03.058Z,53.70
2023-03-04T16:41:30.984Z,54.70
2023-03-04T16:44:01.979Z,56.10
2023-03-04T16:46:30.149Z,55.80
2023-03-04T16:48:57.143Z,56.80
2023-03-04T16:51:24.354Z,57.00
2023-03-04T16:54:00.202Z,57.30
2023-03-04T16:56:27.968Z,56.20
2023-03-04T16:58:54.992Z,57.90
2023-03-04T17:01:29.122Z,58.00
2023-03-04T17:03:57.027Z,57.50
2023-03-04T17:06:24.973Z,58.30
2023-03-04T17:08:52.266Z,58.40
2023-03-04T17:11:22.863Z,58.50
2023-03-04T17:13:51.430Z,58.50
2023-03-04T17:16:18.759Z,59.40
2023-03-04T17:18:46.133Z,59.00
2023-03-04T17:21:18.189Z,59.20
2023-03-04T17:23:45.277Z,59.20
2023-03-04T17:26:13.549Z,59.50
2023-03-04T17:28:40.460Z,59.80
2023-03-04T17:31:12.684Z,60.00
2023-03-04T17:33:40.164Z,59.50
2023-03-04T17:36:09.977Z,60.10
2023-03-04T17:38:38.804Z,60.20
2023-03-04T17:41:16.054Z,60.30
2023-03-04T17:43:51.878Z,59.70
2023-03-04T17:46:22.817Z,60.10
2023-03-04T17:48:52.530Z,60.70
2023-03-04T17:51:19.514Z,60.90
2023-03-04T17:53:46.433Z,61.00
2023-03-04T17:56:13.677Z,61.10
2023-03-04T17:58:42.132Z,61.20
2023-03-04T18:01:20.998Z,61.30
2023-03-04T18:03:49.113Z,60.40
2023-03-04T18:06:17.099Z,61.50
2023-03-04T18:08:44.681Z,61.60
2023-03-04T18:11:12.314Z,61.60
2023-03-04T18:13:41.031Z,61.50
2023-03-04T18:16:09.139Z,61.40
2023-03-04T18:18:36.532Z,61.50
2023-03-04T18:21:04.690Z,61.50
2023-03-04T18:23:32.098Z,61.70
2023-03-04T18:25:59.326Z,61.80
2023-03-04T18:28:26.334Z,61.80
2023-03-04T18:30:53.745Z,61.90
2023-03-04T18:33:21.557Z,62.00
2023-03-04T18:35:48.834Z,62.00
2023-03-04T18:38:16.554Z,62.00
2023-03-04T18:40:44.541Z,61.90
2023-03-04T18:43:11.595Z,61.90
2023-03-04T18:45:38.605Z,61.80
2023-03-04T18:48:06.428Z,62.00
2023-03-04T18:50:33.363Z,62.10
2023-03-04T18:53:00.296Z,62.30
2023-03-04T18:55:28.281Z,62.20
2023-03-04T18:57:59.115Z,62.30
2023-03-04T19:00:26.057Z,62.10
2023-03-04T19:03:12.061Z,59.70
2023-03-04T19:05:39.546Z,61.00
2023-03-04T19:08:06.915Z,62.70
2023-03-04T19:10:33.965Z,62.60
2023-03-04T19:13:01.070Z,62.60
2023-03-04T19:15:28.200Z,62.60
2023-03-04T19:17:55.177Z,62.40
2023-03-04T19:20:22.126Z,62.40
2023-03-04T19:22:49.057Z,62.30
2023-03-04T19:25:16.005Z,62.20
2023-03-04T19:27:42.959Z,62.20
2023-03-04T19:30:10.623Z,62.40
2023-03-04T19:32:37.727Z,62.50
2023-03-04T19:35:05.242Z,62.50
2023-03-04T19:37:32.246Z,62.50
2023-03-04T19:39:59.152Z,62.60
2023-03-04T19:42:26.025Z,62.60
2023-03-04T19:44:53.001Z,62.60
2023-03-04T19:47:19.925Z,62.70
2023-03-04T19:49:46.947Z,62.70
2023-03-04T19:52:13.865Z,62.70
2023-03-04T19:54:40.846Z,62.60
2023-03-04T19:57:07.713Z,62.50
2023-03-04T19:59:36.009Z,62.30
2023-03-04T20:02:03.205Z,62.20
2023-03-04T20:04:30.457Z,62.20
2023-03-04T20:06:57.444Z,62.20
2023-03-04T20:09:24.298Z,62.20
2023-03-04T20:11:58.414Z,62.30
2023-03-04T20:14:27.851Z,62.20
2023-03-04T20:16:58.839Z,62.00
2023-03-04T20:19:25.896Z,62.10
2023-03-04T20:21:52.899Z,62.10
2023-03-04T20:24:20.130Z,62.20
2023-03-04T20:26:47.328Z,62.20
2023-03-04T20:29:14.169Z,62.20
2023-03-04T20:31:41.649Z,62.30
2023-03-04T20:34:10.301Z,62.30
2023-03-04T20:36:38.586Z,62.30
2023-03-04T20:39:18.330Z,62.40
2023-03-04T20:41:52.710Z,62.30
2023-03-04T20:44:19.652Z,62.40
2023-03-04T20:46:46.819Z,62.50
2023-03-04T20:49:23.506Z,62.60
2023-03-04T20:51:59.528Z,62.50
2023-03-04T20:54:26.467Z,62.20
2023-03-04T20:56:53.379Z,62.50
2023-03-04T20:59:21.029Z,62.50
2023-03-04T21:01:48.684Z,62.60
2023-03-04T21:04:17.398Z,62.60
2023-03-04T21:06:45.168Z,62.80
2023-03-04T21:09:16.720Z,62.70
2023-03-04T21:11:44.068Z,62.70
2023-03-04T21:14:24.453Z,62.80
2023-03-04T21:16:55.373Z,61.60
2023-03-04T21:19:27.356Z,62.80
2023-03-04T21:21:55.910Z,63.00
2023-03-04T21:24:27.152Z,63.10
2023-03-04T21:26:54.280Z,63.10
2023-03-04T21:29:24.753Z,63.20
2023-03-04T21:32:25.241Z,63.00
2023-03-04T21:34:54.927Z,61.60
2023-03-04T21:37:24.830Z,62.90
2023-03-04T21:39:52.158Z,63.00
2023-03-04T21:42:20.061Z,63.20
2023-03-04T21:44:50.099Z,63.00
2023-03-04T21:47:19.690Z,63.10
2023-03-04T21:49:47.321Z,63.00
2023-03-04T21:52:14.578Z,63.10
2023-03-04T21:54:41.463Z,63.30
2023-03-04T21:57:08.478Z,63.20
2023-03-04T21:59:35.435Z,63.00
2023-03-04T22:02:02.552Z,63.10
2023-03-04T22:04:29.721Z,63.20
2023-03-04T22:06:56.581Z,63.30
2023-03-04T22:09:23.525Z,63.40
2023-03-04T22:11:50.454Z,63.40
2023-03-04T22:14:17.408Z,63.40
2023-03-04T22:16:59.496Z,63.40
2023-03-04T22:19:34.181Z,63.40
2023-03-04T22:22:01.089Z,63.20
2023-03-04T22:24:28.336Z,63.20
2023-03-04T22:26:57.568Z,63.20
2023-03-04T22:29:24.812Z,63.30
2023-03-04T22:31:51.907Z,63.40
2023-03-04T22:34:18.886Z,63.40
2023-03-04T22:36:47.161Z,63.30
2023-03-04T22:39:21.191Z,63.20
2023-03-04T22:41:48.418Z,63.30
2023-03-04T22:44:15.389Z,63.50
2023-03-04T22:46:43.631Z,63.50
2023-03-04T22:49:13.957Z,63.50
2023-03-04T22:51:43.689Z,63.50
2023-03-04T22:54:16.997Z,63.60
2023-03-04T22:56:45.024Z,63.40
2023-03-04T22:59:12.683Z,63.90
2023-03-04T23:01:39.825Z,63.90
2023-03-04T23:04:06.797Z,64.10
2023-03-04T23:06:34.657Z,64.10
2023-03-04T23:09:01.467Z,64.10
2023-03-04T23:11:35.353Z,64.20
2023-03-04T23:14:06.691Z,64.00
2023-03-04T23:16:37.383Z,64.40
2023-03-04T23:19:06.266Z,64.40
2023-03-04T23:21:34.029Z,62.90
2023-03-04T23:24:02.696Z,64.40
2023-03-04T23:26:38.616Z,64.30
2023-03-04T23:29:08.809Z,64.30
2023-03-04T23:31:36.311Z,64.40
2023-03-04T23:34:04.219Z,64.50
2023-03-04T23:36:37.689Z,64.40
2023-03-04T23:39:07.452Z,64.00
2023-03-04T23:41:35.722Z,64.30
2023-03-04T23:44:03.866Z,64.40
2023-03-04T23:46:30.920Z,64.50
2023-03-04T23:48:57.994Z,64.50
2023-03-04T23:51:29.133Z,64.50
2023-03-04T23:53:57.697Z,64.40
2023-03-04T23:56:28.856Z,64.60
2023-03-04T23:58:58.977Z,64.40
